createdAt,value
2018-06-03T00:00:54.000Z,32.5
2018-06-03T00:02:54.000Z,32.5
2018-06-03T00:03:54.000Z,32.5
2018-06-03T00:05:54.000Z,32.5
2018-06-03T00:06:54.000Z,32.6
2018-06-03T00:08:54.000Z,32.6
2018-06-03T00:10:54.000Z,32.5
2018-06-03T00:11:54.000Z,32.5
2018-06-03T00:12:54.000Z,32.5
2018-06-03T00:13:54.000Z,32.5
2018-06-03T00:14:54.000Z,32.6
2018-06-03T00:15:54.000Z,32.6
2018-06-03T00:17:54.000Z,32.6
2018-06-03T00:19:54.000Z,32.6
2018-06-03T00:20:54.000Z,32.6
2018-06-03T00:22:54.000Z,32.6
2018-06-03T00:23:54.000Z,32.6
2018-06-03T00:24:54.000Z,32.7
2018-06-03T00:26:54.000Z,32.7
2018-06-03T00:28:54.000Z,32.7
2018-06-03T00:29:54.000Z,32.6
2018-06-03T00:31:54.000Z,32.6
2018-06-03T00:32:54.000Z,32.7
2018-06-03T00:34:54.000Z,32.6
2018-06-03T00:36:54.000Z,32.6
2018-06-03T00:38:54.000Z,32.5
2018-06-03T00:40:54.000Z,32.5
2018-06-03T00:42:54.000Z,32.4
2018-06-03T00:44:39.000Z,32.4
2018-06-03T00:45:54.000Z,32.3
2018-06-03T00:46:54.000Z,32.3
2018-06-03T00:48:54.000Z,32.4
2018-06-03T00:49:54.000Z,32.4
2018-06-03T00:51:54.000Z,32.5
2018-06-03T00:53:54.000Z,32.5
2018-06-03T00:55:54.000Z,32.4
2018-06-03T00:56:54.000Z,32.4
2018-06-03T00:58:54.000Z,32.5
2018-06-03T00:59:54.000Z,32.5
2018-06-03T01:01:54.000Z,32.4
2018-06-03T01:03:39.000Z,32.4
2018-06-03T01:04:54.000Z,32.4
2018-06-03T01:06:54.000Z,32.3
2018-06-03T01:07:54.000Z,32.4
2018-06-03T01:08:54.000Z,32.4
2018-06-03T01:10:54.000Z,32.5
2018-06-03T01:11:54.000Z,32.5
2018-06-03T01:12:54.000Z,32.5
2018-06-03T01:13:54.000Z,32.6
2018-06-03T01:14:54.000Z,32.6
2018-06-03T01:16:54.000Z,32.6
2018-06-03T01:18:54.000Z,32.5
2018-06-03T01:20:55.000Z,32.5
2018-06-03T01:22:55.000Z,32.4
2018-06-03T01:23:55.000Z,32.4
2018-06-03T01:25:55.000Z,32.4
2018-06-03T01:27:55.000Z,32.3
2018-06-03T01:29:55.000Z,32.3
2018-06-03T01:30:55.000Z,32.3
2018-06-03T01:32:55.000Z,32.3
2018-06-03T01:34:55.000Z,32.3
2018-06-03T01:35:55.000Z,32.3
2018-06-03T01:36:55.000Z,32.4
2018-06-03T01:37:55.000Z,32.4
2018-06-03T01:39:55.000Z,32.4
2018-06-03T01:40:55.000Z,32.5
2018-06-03T01:41:55.000Z,32.5
2018-06-03T01:43:55.000Z,32.5
2018-06-03T01:44:55.000Z,32.5
2018-06-03T01:46:55.000Z,32.5
2018-06-03T01:48:55.000Z,32.5
2018-06-03T01:49:55.000Z,32.5
2018-06-03T01:51:55.000Z,32.4
2018-06-03T01:53:39.000Z,32.4
2018-06-03T01:54:55.000Z,32.3
2018-06-03T01:55:55.000Z,32.3
2018-06-03T01:56:55.000Z,32.4
2018-06-03T01:57:55.000Z,32.4
2018-06-03T01:59:55.000Z,32.5
2018-06-03T02:00:55.000Z,32.4
2018-06-03T02:01:55.000Z,32.5
2018-06-03T02:02:55.000Z,32.6
2018-06-03T02:03:55.000Z,32.6
2018-06-03T02:04:55.000Z,32.6
2018-06-03T02:06:55.000Z,32.7
2018-06-03T02:07:55.000Z,32.7
2018-06-03T02:08:55.000Z,32.7
2018-06-03T02:10:55.000Z,32.7
2018-06-03T02:11:55.000Z,32.7
2018-06-03T02:13:55.000Z,32.6
2018-06-03T02:14:55.000Z,32.6
2018-06-03T02:16:55.000Z,32.5
2018-06-03T02:17:55.000Z,32.5
2018-06-03T02:18:55.000Z,32.6
2018-06-03T02:19:55.000Z,32.6
2018-06-03T02:21:55.000Z,32.7
2018-06-03T02:23:54.000Z,32.6
2018-06-03T02:24:54.000Z,32.6
2018-06-03T02:25:54.000Z,32.6
2018-06-03T02:27:54.000Z,32.6
2018-06-03T02:29:54.000Z,32.6
2018-06-03T02:30:54.000Z,32.5
2018-06-03T02:32:39.000Z,32.6
2018-06-03T02:33:54.000Z,32.5
2018-06-03T02:34:54.000Z,32.5
2018-06-03T02:36:54.000Z,32.5
2018-06-03T02:38:54.000Z,32.5
2018-06-03T02:39:54.000Z,32.5
2018-06-03T02:41:54.000Z,32.5
2018-06-03T02:43:54.000Z,32.4
2018-06-03T02:44:54.000Z,32.4
2018-06-03T02:45:54.000Z,32.4
2018-06-03T02:47:54.000Z,32.5
2018-06-03T02:49:54.000Z,32.5
2018-06-03T02:50:54.000Z,32.4
2018-06-03T02:51:54.000Z,32.5
2018-06-03T02:52:54.000Z,32.5
2018-06-03T02:54:54.000Z,32.6
2018-06-03T02:56:54.000Z,32.5
2018-06-03T02:57:54.000Z,32.4
2018-06-03T02:59:54.000Z,32.4
2018-06-03T03:00:54.000Z,32.4
2018-06-03T03:02:54.000Z,32.4
2018-06-03T03:04:54.000Z,32.4
2018-06-03T03:05:54.000Z,32.3
2018-06-03T03:07:54.000Z,32.3
2018-06-03T03:09:39.000Z,32.3
2018-06-03T03:10:54.000Z,32.3
2018-06-03T03:12:54.000Z,32.3
2018-06-03T03:13:54.000Z,32.3
2018-06-03T03:15:54.000Z,32.3
2018-06-03T03:16:54.000Z,32.4
2018-06-03T03:18:54.000Z,32.4
2018-06-03T03:20:39.000Z,32.4
2018-06-03T03:21:54.000Z,32.4
2018-06-03T03:22:54.000Z,32.4
2018-06-03T03:23:54.000Z,32.4
2018-06-03T03:25:54.000Z,32.4
2018-06-03T03:27:39.000Z,32.4
2018-06-03T03:28:54.000Z,32.4
2018-06-03T03:30:54.000Z,32.3
2018-06-03T03:32:54.000Z,32.2
2018-06-03T03:34:54.000Z,32.2
2018-06-03T03:35:54.000Z,32.2
2018-06-03T03:36:54.000Z,32.3
2018-06-03T03:37:54.000Z,32.4
2018-06-03T03:38:54.000Z,32.5
2018-06-03T03:39:54.000Z,32.5
2018-06-03T03:40:54.000Z,32.6
2018-06-03T03:41:54.000Z,32.6
2018-06-03T03:42:54.000Z,32.7
2018-06-03T03:44:54.000Z,32.7
2018-06-03T03:45:54.000Z,32.7
2018-06-03T03:46:54.000Z,32.7
2018-06-03T03:48:54.000Z,32.7
2018-06-03T03:50:54.000Z,32.6
2018-06-03T03:51:54.000Z,32.5
2018-06-03T03:53:54.000Z,32.5
2018-06-03T03:55:54.000Z,32.5
2018-06-03T03:57:54.000Z,32.4
2018-06-03T03:59:54.000Z,32.4
2018-06-03T04:00:54.000Z,32.4
2018-06-03T04:02:54.000Z,32.5
2018-06-03T04:04:54.000Z,32.4
2018-06-03T04:06:54.000Z,32.4
2018-06-03T04:08:39.000Z,32.4
2018-06-03T04:09:54.000Z,32.4
2018-06-03T04:10:54.000Z,32.4
2018-06-03T04:12:39.000Z,32.4
2018-06-03T04:13:54.000Z,32.4
2018-06-03T04:15:54.000Z,32.3
2018-06-03T04:17:54.000Z,32.3
2018-06-03T04:18:54.000Z,32.4
2018-06-03T04:19:54.000Z,32.4
2018-06-03T04:20:54.000Z,32.5
2018-06-03T04:22:54.000Z,32.5
2018-06-03T04:24:54.000Z,32.5
2018-06-03T04:25:54.000Z,32.4
2018-06-03T04:26:54.000Z,32.5
2018-06-03T04:27:54.000Z,32.5
2018-06-03T04:29:54.000Z,32.6
2018-06-03T04:31:54.000Z,32.5
2018-06-03T04:32:54.000Z,32.5
2018-06-03T04:33:54.000Z,32.6
2018-06-03T04:37:40.000Z,32.2
2018-06-03T04:38:41.000Z,32.2
2018-06-03T04:40:41.000Z,32.2
2018-06-03T04:41:41.000Z,32.2
2018-06-03T04:42:41.000Z,32.3
2018-06-03T04:44:41.000Z,32.5
2018-06-03T04:45:41.000Z,32.5
2018-06-03T04:47:41.000Z,32.5
2018-06-03T04:48:41.000Z,32.5
2018-06-03T04:49:41.000Z,32.6
2018-06-03T04:51:41.000Z,32.6
2018-06-03T04:52:41.000Z,32.7
2018-06-03T04:54:41.000Z,32.7
2018-06-03T04:55:41.000Z,32.7
2018-06-03T04:58:03.000Z,32.6
2018-06-03T04:59:49.000Z,32.6
2018-06-03T05:00:49.000Z,32.7
2018-06-03T05:02:49.000Z,32.7
2018-06-03T05:03:49.000Z,32.7
2018-06-03T05:05:49.000Z,32.7
2018-06-03T05:06:49.000Z,32.7
2018-06-03T05:07:49.000Z,32.8
2018-06-03T05:09:49.000Z,32.8
2018-06-03T05:10:49.000Z,32.9
2018-06-03T05:11:49.000Z,32.9
2018-06-03T05:13:33.000Z,32.9
2018-06-03T05:14:49.000Z,32.9
2018-06-03T05:15:49.000Z,32.9
2018-06-03T05:17:48.000Z,32.9
2018-06-03T05:18:49.000Z,33
2018-06-03T05:20:49.000Z,33
2018-06-03T05:22:49.000Z,33
2018-06-03T05:24:49.000Z,32.9
2018-06-03T05:26:49.000Z,32.9
2018-06-03T05:28:49.000Z,32.9
2018-06-03T05:29:49.000Z,33
2018-06-03T05:31:49.000Z,33.1
2018-06-03T05:32:49.000Z,33.1
2018-06-03T05:33:49.000Z,33.2
2018-06-03T05:34:49.000Z,33.2
2018-06-03T05:36:49.000Z,33.3
2018-06-03T05:37:49.000Z,33.3
2018-06-03T05:39:49.000Z,33.3
2018-06-03T05:40:49.000Z,33.3
2018-06-03T05:41:49.000Z,33.4
2018-06-03T05:42:49.000Z,33.4
2018-06-03T05:44:49.000Z,33.3
2018-06-03T05:45:49.000Z,33.3
2018-06-03T05:46:49.000Z,33.3
2018-06-03T05:48:49.000Z,33.3
2018-06-03T05:49:49.000Z,33.3
2018-06-03T05:51:49.000Z,33.3
2018-06-03T05:52:49.000Z,33.3
2018-06-03T05:53:49.000Z,33.3
2018-06-03T05:54:49.000Z,33.4
2018-06-03T05:56:49.000Z,33.4
2018-06-03T05:58:49.000Z,33.3
2018-06-03T05:59:49.000Z,33.3
2018-06-03T06:01:49.000Z,33.3
2018-06-03T06:02:49.000Z,33.2
2018-06-03T06:04:49.000Z,33.2
2018-06-03T06:06:49.000Z,33.1
2018-06-03T06:07:49.000Z,33.1
2018-06-03T06:08:49.000Z,33.1
2018-06-03T06:09:49.000Z,33.1
2018-06-03T06:11:34.000Z,33.2
2018-06-03T06:12:49.000Z,33.1
2018-06-03T06:14:49.000Z,33.1
2018-06-03T06:16:49.000Z,33
2018-06-03T06:18:49.000Z,32.9
2018-06-03T06:20:49.000Z,32.8
2018-06-03T06:22:49.000Z,32.8
2018-06-03T06:23:49.000Z,32.8
2018-06-03T06:25:49.000Z,32.8
2018-06-03T06:26:49.000Z,32.8
2018-06-03T06:27:49.000Z,32.9
2018-06-03T06:29:49.000Z,33
2018-06-03T06:31:49.000Z,33
2018-06-03T06:32:49.000Z,33
2018-06-03T06:33:49.000Z,33.1
2018-06-03T06:35:49.000Z,33.1
2018-06-03T06:36:49.000Z,33.1
2018-06-03T06:37:48.000Z,33.1
2018-06-03T06:39:48.000Z,33.1
2018-06-03T06:40:48.000Z,33.2
2018-06-03T06:42:48.000Z,33.2
2018-06-03T06:44:48.000Z,33.2
2018-06-03T06:46:48.000Z,33.1
2018-06-03T06:48:48.000Z,33.1
2018-06-03T06:49:48.000Z,33.1
2018-06-03T06:51:48.000Z,33.1
2018-06-03T06:53:48.000Z,33.1
2018-06-03T06:54:48.000Z,33.1
2018-06-03T06:56:48.000Z,33.1
2018-06-03T06:57:48.000Z,33.1
2018-06-03T06:59:48.000Z,33.2
2018-06-03T07:00:48.000Z,33.2
2018-06-03T07:02:48.000Z,33.2
2018-06-03T07:04:48.000Z,33.2
2018-06-03T07:06:48.000Z,33.2
2018-06-03T07:08:48.000Z,33.2
2018-06-03T07:09:48.000Z,33.2
2018-06-03T07:11:48.000Z,33.3
2018-06-03T07:12:48.000Z,33.3
2018-06-03T07:13:48.000Z,33.4
2018-06-03T07:15:48.000Z,33.5
2018-06-03T07:17:48.000Z,33.4
2018-06-03T07:19:48.000Z,33.4
2018-06-03T07:21:48.000Z,33.3
2018-06-03T07:23:48.000Z,33.3
2018-06-03T07:24:48.000Z,33.3
2018-06-03T07:25:48.000Z,33.3
2018-06-03T07:26:48.000Z,33.4
2018-06-03T07:28:48.000Z,33.5
2018-06-03T07:29:48.000Z,33.5
2018-06-03T07:30:48.000Z,33.5
2018-06-03T07:31:48.000Z,33.5
2018-06-03T07:32:48.000Z,33.5
2018-06-03T07:34:33.000Z,33.6
2018-06-03T07:35:48.000Z,33.5
2018-06-03T07:37:33.000Z,33.5
2018-06-03T07:38:48.000Z,33.4
2018-06-03T07:40:48.000Z,33.4
2018-06-03T07:42:49.000Z,33.3
2018-06-03T07:43:49.000Z,33.3
2018-06-03T07:45:34.000Z,33.3
2018-06-03T07:46:49.000Z,33.3
2018-06-03T07:47:49.000Z,33.3
2018-06-03T07:49:49.000Z,33.3
2018-06-03T07:51:49.000Z,33.2
2018-06-03T07:53:49.000Z,33.2
2018-06-03T07:54:49.000Z,33.2
2018-06-03T07:56:49.000Z,33.3
2018-06-03T07:58:49.000Z,33.3
2018-06-03T07:59:49.000Z,33.3
2018-06-03T08:01:49.000Z,33.4
2018-06-03T08:02:49.000Z,33.4
2018-06-03T08:03:49.000Z,33.4
2018-06-03T08:05:49.000Z,33.5
2018-06-03T08:06:49.000Z,33.5
2018-06-03T08:08:49.000Z,33.6
2018-06-03T08:10:49.000Z,33.6
2018-06-03T08:12:49.000Z,33.5
2018-06-03T08:13:49.000Z,33.6
2018-06-03T08:14:49.000Z,33.6
2018-06-03T08:16:49.000Z,33.8
2018-06-03T08:17:49.000Z,33.8
2018-06-03T08:19:49.000Z,34
2018-06-03T08:21:49.000Z,34.1
2018-06-03T08:23:49.000Z,34.2
2018-06-03T08:24:49.000Z,34.3
2018-06-03T08:26:49.000Z,34.5
2018-06-03T08:28:49.000Z,34.6
2018-06-03T08:30:49.000Z,34.7
2018-06-03T08:32:49.000Z,34.8
2018-06-03T08:33:49.000Z,34.8
2018-06-03T08:34:49.000Z,34.9
2018-06-03T08:35:49.000Z,35.1
2018-06-03T08:36:49.000Z,35.2
2018-06-03T08:37:49.000Z,35.4
2018-06-03T08:39:49.000Z,35.5
2018-06-03T08:41:49.000Z,35.5
2018-06-03T08:43:49.000Z,35.5
2018-06-03T08:45:48.000Z,35.4
2018-06-03T08:46:48.000Z,35.3
2018-06-03T08:48:33.000Z,35.3
2018-06-03T08:49:48.000Z,35.2
2018-06-03T08:51:48.000Z,35.2
2018-06-03T08:53:48.000Z,35.2
2018-06-03T08:54:48.000Z,35.2
2018-06-03T08:56:48.000Z,35.1
2018-06-03T08:57:48.000Z,35.1
2018-06-03T08:59:48.000Z,35.3
2018-06-03T09:01:48.000Z,35.3
2018-06-03T09:02:48.000Z,35.2
2018-06-03T09:04:48.000Z,35
2018-06-03T09:05:48.000Z,35
2018-06-03T09:06:48.000Z,35
2018-06-03T09:08:48.000Z,34.9
2018-06-03T09:10:48.000Z,34.7
2018-06-03T09:11:48.000Z,34.7
2018-06-03T09:13:48.000Z,34.6
2018-06-03T09:15:33.000Z,34.5
2018-06-03T09:16:48.000Z,34.4
2018-06-03T09:17:48.000Z,34.4
2018-06-03T09:18:48.000Z,34.4
2018-06-03T09:19:48.000Z,34.4
2018-06-03T09:21:48.000Z,34.4
2018-06-03T09:22:48.000Z,34.4
2018-06-03T09:24:48.000Z,34.3
2018-06-03T09:25:48.000Z,34.3
2018-06-03T09:27:48.000Z,34.2
2018-06-03T09:28:48.000Z,34.2
2018-06-03T09:30:48.000Z,34.1
2018-06-03T09:31:48.000Z,34.1
2018-06-03T09:33:33.000Z,34.1
2018-06-03T09:34:48.000Z,34.1
2018-06-03T09:35:48.000Z,34.1
2018-06-03T09:37:48.000Z,34.1
2018-06-03T09:39:33.000Z,34.1
2018-06-03T09:40:48.000Z,34
2018-06-03T09:41:48.000Z,34.1
2018-06-03T09:42:48.000Z,34.1
2018-06-03T09:44:48.000Z,34.1
2018-06-03T09:45:48.000Z,34.1
2018-06-03T09:47:48.000Z,34.1
2018-06-03T09:48:49.000Z,34.1
2018-06-03T09:50:49.000Z,34.1
2018-06-03T09:51:49.000Z,34.1
2018-06-03T09:53:49.000Z,34.2
2018-06-03T09:54:49.000Z,34.2
2018-06-03T09:55:49.000Z,34.3
2018-06-03T09:57:34.000Z,34.3
2018-06-03T09:58:49.000Z,34.3
2018-06-03T09:59:49.000Z,34.3
2018-06-03T10:01:49.000Z,34.3
2018-06-03T10:02:49.000Z,34.3
2018-06-03T10:04:49.000Z,34.4
2018-06-03T10:05:49.000Z,34.4
2018-06-03T10:07:49.000Z,34.5
2018-06-03T10:09:49.000Z,34.5
2018-06-03T10:11:49.000Z,34.5
2018-06-03T10:13:49.000Z,34.4
2018-06-03T10:15:49.000Z,34.4
2018-06-03T10:16:49.000Z,34.4
2018-06-03T10:18:49.000Z,34.5
2018-06-03T10:20:49.000Z,34.5
2018-06-03T10:22:49.000Z,34.5
2018-06-03T10:24:49.000Z,34.5
2018-06-03T10:25:49.000Z,34.6
2018-06-03T10:26:49.000Z,34.6
2018-06-03T10:28:49.000Z,34.8
2018-06-03T10:29:49.000Z,34.8
2018-06-03T10:30:49.000Z,34.8
2018-06-03T10:31:49.000Z,34.9
2018-06-03T10:33:49.000Z,35
2018-06-03T10:35:49.000Z,35
2018-06-03T10:36:49.000Z,35
2018-06-03T10:38:49.000Z,35
2018-06-03T10:39:49.000Z,35.1
2018-06-03T10:40:49.000Z,35.1
2018-06-03T10:41:49.000Z,35.1
2018-06-03T10:43:49.000Z,35.1
2018-06-03T10:45:49.000Z,35
2018-06-03T10:47:49.000Z,35
2018-06-03T10:49:49.000Z,35
2018-06-03T10:50:49.000Z,35.1
2018-06-03T10:51:49.000Z,35.2
2018-06-03T10:53:49.000Z,35.2
2018-06-03T10:54:49.000Z,35.2
2018-06-03T10:56:49.000Z,35.3
2018-06-03T10:57:49.000Z,35.4
2018-06-03T10:59:49.000Z,35.5
2018-06-03T11:00:49.000Z,35.5
2018-06-03T11:02:34.000Z,35.5
2018-06-03T11:03:49.000Z,35.5
2018-06-03T11:05:49.000Z,35.5
2018-06-03T11:06:49.000Z,35.5
2018-06-03T11:08:49.000Z,35.6
2018-06-03T11:10:49.000Z,35.7
2018-06-03T11:12:49.000Z,35.7
2018-06-03T11:14:34.000Z,35.8
2018-06-03T11:15:49.000Z,35.8
2018-06-03T11:16:49.000Z,35.9
2018-06-03T11:18:49.000Z,36.2
2018-06-03T11:20:34.000Z,36.4
2018-06-03T11:21:49.000Z,36.5
2018-06-03T11:22:49.000Z,36.5
2018-06-03T11:24:34.000Z,36.7
2018-06-03T11:25:49.000Z,36.7
2018-06-03T11:27:34.000Z,36.7
2018-06-03T11:28:49.000Z,36.7
2018-06-03T11:30:49.000Z,36.7
2018-06-03T11:32:49.000Z,36.7
2018-06-03T11:34:49.000Z,36.6
2018-06-03T11:36:34.000Z,36.6
2018-06-03T11:37:49.000Z,36.6
2018-06-03T11:39:49.000Z,36.3
2018-06-03T11:41:49.000Z,35.8
2018-06-03T11:43:34.000Z,35.5
2018-06-03T11:44:49.000Z,35.3
2018-06-03T11:45:49.000Z,35.2
2018-06-03T11:47:49.000Z,35
2018-06-03T11:49:49.000Z,34.9
2018-06-03T11:50:49.000Z,34.8
2018-06-03T11:51:49.000Z,34.7
2018-06-03T11:52:49.000Z,34.7
2018-06-03T11:54:49.000Z,34.7
2018-06-03T11:56:49.000Z,34.6
2018-06-03T11:58:49.000Z,34.4
2018-06-03T12:00:49.000Z,34.2
2018-06-03T12:01:49.000Z,34.2
2018-06-03T12:03:49.000Z,34.2
2018-06-03T12:05:49.000Z,34.2
2018-06-03T12:07:49.000Z,34.1
2018-06-03T12:09:49.000Z,34.1
2018-06-03T12:10:49.000Z,34
2018-06-03T12:12:49.000Z,34.1
2018-06-03T12:13:49.000Z,34.1
2018-06-03T12:15:49.000Z,34.1
2018-06-03T12:17:49.000Z,34
2018-06-03T12:18:49.000Z,34
2018-06-03T12:20:49.000Z,34
2018-06-03T12:21:49.000Z,34
2018-06-03T12:23:49.000Z,34
2018-06-03T12:25:49.000Z,34
2018-06-03T12:26:49.000Z,34
2018-06-03T12:27:49.000Z,34
2018-06-03T12:29:49.000Z,34
2018-06-03T12:31:34.000Z,34
2018-06-03T12:32:49.000Z,33.9
2018-06-03T12:34:49.000Z,33.9
2018-06-03T12:35:49.000Z,33.9
2018-06-03T12:37:49.000Z,33.9
2018-06-03T12:39:49.000Z,33.8
2018-06-03T12:41:49.000Z,33.8
2018-06-03T12:43:49.000Z,33.8
2018-06-03T12:44:49.000Z,33.8
2018-06-03T12:46:34.000Z,33.8
2018-06-03T12:47:49.000Z,33.7
2018-06-03T12:49:49.000Z,33.7
2018-06-03T12:50:49.000Z,33.7
2018-06-03T12:52:49.000Z,33.6
2018-06-03T12:53:49.000Z,33.7
2018-06-03T12:55:49.000Z,33.7
2018-06-03T12:56:49.000Z,33.6
2018-06-03T12:58:49.000Z,33.6
2018-06-03T13:00:49.000Z,33.6
2018-06-03T13:01:49.000Z,33.6
2018-06-03T13:02:49.000Z,33.7
2018-06-03T13:03:49.000Z,33.7
2018-06-03T13:05:49.000Z,33.8
2018-06-03T13:07:49.000Z,33.8
2018-06-03T13:09:49.000Z,33.7
2018-06-03T13:10:49.000Z,33.7
2018-06-03T13:12:49.000Z,33.8
2018-06-03T13:13:49.000Z,33.8
2018-06-03T13:15:49.000Z,33.8
2018-06-03T13:16:49.000Z,33.7
2018-06-03T13:18:49.000Z,33.7
2018-06-03T13:19:49.000Z,33.8
2018-06-03T13:20:49.000Z,33.8
2018-06-03T13:22:49.000Z,33.8
2018-06-03T13:24:49.000Z,33.8
2018-06-03T13:25:49.000Z,33.8
2018-06-03T13:27:49.000Z,33.8
2018-06-03T13:28:49.000Z,33.7
2018-06-03T13:29:49.000Z,33.7
2018-06-03T13:30:49.000Z,33.8
2018-06-03T13:32:49.000Z,33.9
2018-06-03T13:33:49.000Z,33.9
2018-06-03T13:34:49.000Z,33.9
2018-06-03T13:36:49.000Z,33.8
2018-06-03T13:37:49.000Z,33.8
2018-06-03T13:39:34.000Z,33.8
2018-06-03T13:40:49.000Z,33.8
2018-06-03T13:41:49.000Z,33.8
2018-06-03T13:43:49.000Z,33.8
2018-06-03T13:45:49.000Z,33.8
2018-06-03T13:46:49.000Z,33.8
2018-06-03T13:48:49.000Z,33.8
2018-06-03T13:49:49.000Z,33.8
2018-06-03T13:50:49.000Z,33.9
2018-06-03T13:51:49.000Z,33.9
2018-06-03T13:53:49.000Z,33.9
2018-06-03T13:55:49.000Z,33.9
2018-06-03T13:57:49.000Z,33.8
2018-06-03T13:58:49.000Z,33.8
2018-06-03T14:00:49.000Z,33.8
2018-06-03T14:02:49.000Z,33.8
2018-06-03T14:03:49.000Z,33.8
2018-06-03T14:04:49.000Z,33.8
2018-06-03T14:06:49.000Z,33.9
2018-06-03T14:08:49.000Z,33.8
2018-06-03T14:09:49.000Z,33.7
2018-06-03T14:10:49.000Z,33.8
2018-06-03T14:12:49.000Z,33.8
2018-06-03T14:13:49.000Z,33.8
2018-06-03T14:15:49.000Z,33.8
2018-06-03T14:16:49.000Z,33.8
2018-06-03T14:17:49.000Z,33.8
2018-06-03T14:18:49.000Z,33.8
2018-06-03T14:20:49.000Z,33.9
2018-06-03T14:22:34.000Z,33.8
2018-06-03T14:23:49.000Z,33.7
2018-06-03T14:25:49.000Z,33.7
2018-06-03T14:27:49.000Z,33.7
2018-06-03T14:28:49.000Z,33.7
2018-06-03T14:29:49.000Z,33.7
2018-06-03T14:31:49.000Z,33.7
2018-06-03T14:33:49.000Z,33.7
2018-06-03T14:35:34.000Z,33.7
2018-06-03T14:36:49.000Z,33.6
2018-06-03T14:38:49.000Z,33.6
2018-06-03T14:39:49.000Z,33.5
2018-06-03T14:41:49.000Z,33.6
2018-06-03T14:43:49.000Z,33.6
2018-06-03T14:45:49.000Z,33.6
2018-06-03T14:47:49.000Z,33.6
2018-06-03T14:49:49.000Z,33.5
2018-06-03T14:50:49.000Z,33.5
2018-06-03T14:52:49.000Z,33.6
2018-06-03T14:53:49.000Z,33.6
2018-06-03T14:55:49.000Z,33.7
2018-06-03T14:57:49.000Z,33.7
2018-06-03T14:59:49.000Z,33.6
2018-06-03T15:00:49.000Z,33.6
2018-06-03T15:02:49.000Z,33.6
2018-06-03T15:03:49.000Z,33.6
2018-06-03T15:04:49.000Z,33.6
2018-06-03T15:06:49.000Z,33.7
2018-06-03T15:08:49.000Z,33.6
2018-06-03T15:09:49.000Z,33.6
2018-06-03T15:10:49.000Z,33.6
2018-06-03T15:11:49.000Z,33.6
2018-06-03T15:13:49.000Z,33.7
2018-06-03T15:14:49.000Z,33.7
2018-06-03T15:15:49.000Z,33.8
2018-06-03T15:17:49.000Z,33.7
2018-06-03T15:18:49.000Z,33.7
2018-06-03T15:19:49.000Z,33.8
2018-06-03T15:21:49.000Z,33.8
2018-06-03T15:23:49.000Z,33.7
2018-06-03T15:24:49.000Z,33.7
2018-06-03T15:26:49.000Z,33.7
2018-06-03T15:27:49.000Z,33.7
2018-06-03T15:29:49.000Z,33.7
2018-06-03T15:30:49.000Z,33.7
2018-06-03T15:32:49.000Z,33.8
2018-06-03T15:33:49.000Z,33.8
2018-06-03T15:34:49.000Z,33.8
2018-06-03T15:36:49.000Z,33.9
2018-06-03T15:37:49.000Z,33.9
2018-06-03T15:39:49.000Z,33.8
2018-06-03T15:41:49.000Z,33.7
2018-06-03T15:43:49.000Z,33.7
2018-06-03T15:45:49.000Z,33.6
2018-06-03T15:46:49.000Z,33.6
2018-06-03T15:47:49.000Z,33.6
2018-06-03T15:48:49.000Z,33.6
2018-06-03T15:50:49.000Z,33.6
2018-06-03T15:51:49.000Z,33.6
2018-06-03T15:53:49.000Z,33.6
2018-06-03T15:55:49.000Z,33.5
2018-06-03T15:56:49.000Z,33.5
2018-06-03T15:58:49.000Z,33.5
2018-06-03T16:00:49.000Z,33.5
2018-06-03T16:02:49.000Z,33.5
2018-06-03T16:04:34.000Z,33.5
2018-06-03T16:05:49.000Z,33.4
2018-06-03T16:06:49.000Z,33.5
2018-06-03T16:08:34.000Z,33.6
2018-06-03T16:09:49.000Z,33.5
2018-06-03T16:10:49.000Z,33.6
2018-06-03T16:12:49.000Z,33.6
2018-06-03T16:14:49.000Z,33.6
2018-06-03T16:16:49.000Z,33.6
2018-06-03T16:17:49.000Z,33.6
2018-06-03T16:19:49.000Z,33.6
2018-06-03T16:20:49.000Z,33.6
2018-06-03T16:22:49.000Z,33.7
2018-06-03T16:24:49.000Z,33.6
2018-06-03T16:26:49.000Z,33.5
2018-06-03T16:28:49.000Z,33.5
2018-06-03T16:30:49.000Z,33.5
2018-06-03T16:31:49.000Z,33.5
2018-06-03T16:32:49.000Z,33.6
2018-06-03T16:34:49.000Z,33.6
2018-06-03T16:35:49.000Z,33.6
2018-06-03T16:36:49.000Z,33.7
2018-06-03T16:38:49.000Z,33.7
2018-06-03T16:39:49.000Z,33.7
2018-06-03T16:41:34.000Z,33.7
2018-06-03T16:42:49.000Z,33.6
2018-06-03T16:43:49.000Z,33.7
2018-06-03T16:45:49.000Z,33.6
2018-06-03T16:46:49.000Z,33.6
2018-06-03T16:48:49.000Z,33.6
2018-06-03T16:50:49.000Z,33.6
2018-06-03T16:52:49.000Z,33.5
2018-06-03T16:53:49.000Z,33.5
2018-06-03T16:55:49.000Z,33.5
2018-06-03T16:56:49.000Z,33.5
2018-06-03T16:58:34.000Z,33.5
2018-06-03T16:59:49.000Z,33.5
2018-06-03T17:00:49.000Z,33.6
2018-06-03T17:02:49.000Z,33.6
2018-06-03T17:03:49.000Z,33.7
2018-06-03T17:05:49.000Z,33.7
2018-06-03T17:06:49.000Z,33.7
2018-06-03T17:07:49.000Z,33.8
2018-06-03T17:08:49.000Z,33.9
2018-06-03T17:09:49.000Z,34
2018-06-03T17:13:35.000Z,33.7
2018-06-03T17:15:35.000Z,33.6
2018-06-03T17:16:35.000Z,33.7
2018-06-03T17:18:19.000Z,33.8
2018-06-03T17:19:35.000Z,33.8
2018-06-03T17:20:35.000Z,33.8
2018-06-03T17:22:35.000Z,33.9
2018-06-03T17:23:35.000Z,33.9
2018-06-03T17:24:35.000Z,34
2018-06-03T17:26:35.000Z,34
2018-06-03T17:28:35.000Z,34
2018-06-03T17:30:19.000Z,34
2018-06-03T17:31:35.000Z,33.9
2018-06-03T17:33:35.000Z,33.9
2018-06-03T17:34:35.000Z,33.9
2018-06-03T17:36:35.000Z,33.9
2018-06-03T17:37:35.000Z,33.9
2018-06-03T17:39:35.000Z,33.8
2018-06-03T17:41:19.000Z,33.9
2018-06-03T17:42:35.000Z,33.8
2018-06-03T17:44:35.000Z,33.8
2018-06-03T17:45:35.000Z,33.8
2018-06-03T17:47:35.000Z,33.9
2018-06-03T17:49:35.000Z,33.9
2018-06-03T17:50:35.000Z,33.9
2018-06-03T17:51:35.000Z,33.9
2018-06-03T17:53:35.000Z,33.9
2018-06-03T17:54:35.000Z,33.9
2018-06-03T17:55:35.000Z,34
2018-06-03T17:57:35.000Z,33.9
2018-06-03T17:58:35.000Z,33.9
2018-06-03T18:00:35.000Z,34
2018-06-03T18:02:35.000Z,34
2018-06-03T18:03:35.000Z,34
2018-06-03T18:04:35.000Z,34
2018-06-03T18:06:35.000Z,34.1
2018-06-03T18:08:35.000Z,34
2018-06-03T18:09:35.000Z,34
2018-06-03T18:11:35.000Z,34.1
2018-06-03T18:13:35.000Z,34
2018-06-03T18:15:19.000Z,33.9
2018-06-03T18:16:35.000Z,33.9
2018-06-03T18:18:35.000Z,33.8
2018-06-03T18:19:35.000Z,33.9
2018-06-03T18:21:19.000Z,33.9
2018-06-03T18:22:35.000Z,33.9
2018-06-03T18:23:35.000Z,33.9
2018-06-03T18:25:35.000Z,33.9
2018-06-03T18:27:35.000Z,33.8
2018-06-03T18:29:35.000Z,33.8
2018-06-03T18:31:35.000Z,33.7
2018-06-03T18:32:35.000Z,33.7
2018-06-03T18:34:35.000Z,33.7
2018-06-03T18:35:35.000Z,33.7
2018-06-03T18:36:35.000Z,33.7
2018-06-03T18:37:35.000Z,33.8
2018-06-03T18:39:35.000Z,33.9
2018-06-03T18:40:35.000Z,33.9
2018-06-03T18:41:35.000Z,33.9
2018-06-03T18:43:35.000Z,34
2018-06-03T18:45:35.000Z,33.9
2018-06-03T18:47:35.000Z,33.8
2018-06-03T18:48:35.000Z,33.8
2018-06-03T18:50:35.000Z,33.8
2018-06-03T18:52:35.000Z,33.7
2018-06-03T18:53:35.000Z,33.7
2018-06-03T18:54:35.000Z,33.7
2018-06-03T18:55:35.000Z,33.7
2018-06-03T18:57:35.000Z,33.7
2018-06-03T18:58:35.000Z,33.7
2018-06-03T18:59:35.000Z,33.8
2018-06-03T19:00:35.000Z,33.8
2018-06-03T19:02:35.000Z,33.8
2018-06-03T19:04:35.000Z,33.7
2018-06-03T19:05:35.000Z,33.7
2018-06-03T19:07:35.000Z,33.7
2018-06-03T19:09:35.000Z,33.7
2018-06-03T19:11:35.000Z,33.6
2018-06-03T19:13:35.000Z,33.6
2018-06-03T19:15:35.000Z,33.5
2018-06-03T19:16:35.000Z,33.6
2018-06-03T19:17:35.000Z,33.6
2018-06-03T19:19:35.000Z,33.6
2018-06-03T19:21:35.000Z,33.5
2018-06-03T19:23:35.000Z,33.5
2018-06-03T19:25:35.000Z,33.4
2018-06-03T19:26:35.000Z,33.4
2018-06-03T19:28:35.000Z,33.4
2018-06-03T19:30:35.000Z,33.3
2018-06-03T19:32:20.000Z,33.3
2018-06-03T19:33:35.000Z,33.3
2018-06-03T19:35:35.000Z,33.2
2018-06-03T19:36:35.000Z,33.2
2018-06-03T19:37:35.000Z,33.3
2018-06-03T19:39:35.000Z,33.3
2018-06-03T19:41:35.000Z,33.3
2018-06-03T19:43:35.000Z,33.3
2018-06-03T19:44:35.000Z,33.3
2018-06-03T19:46:35.000Z,33.4
2018-06-03T19:48:35.000Z,33.3
2018-06-03T19:50:35.000Z,33.3
2018-06-03T19:52:35.000Z,33.2
2018-06-03T19:53:35.000Z,33.2
2018-06-03T19:55:20.000Z,33.2
2018-06-03T19:56:35.000Z,33.2
2018-06-03T19:57:35.000Z,33.2
2018-06-03T19:59:35.000Z,33.2
2018-06-03T20:00:35.000Z,33.2
2018-06-03T20:01:35.000Z,33.3
2018-06-03T20:02:35.000Z,33.3
2018-06-03T20:04:35.000Z,33.4
2018-06-03T20:06:20.000Z,33.4
2018-06-03T20:07:35.000Z,33.3
2018-06-03T20:09:35.000Z,33.3
2018-06-03T20:10:35.000Z,33.3
2018-06-03T20:12:35.000Z,33.3
2018-06-03T20:14:35.000Z,33.2
2018-06-03T20:15:35.000Z,33.2
2018-06-03T20:16:35.000Z,33.3
2018-06-03T20:18:35.000Z,33.3
2018-06-03T20:19:35.000Z,33.3
2018-06-03T20:21:20.000Z,33.3
2018-06-03T20:22:35.000Z,33.2
2018-06-03T20:24:35.000Z,33.2
2018-06-03T20:25:35.000Z,33.2